createdAt,value
2023-04-08T00:02:07.403Z,92.20
2023-04-08T00:04:34.648Z,92.20
2023-04-08T00:07:02.501Z,92.20
2023-04-08T00:09:29.748Z,92.20
2023-04-08T00:11:57.445Z,92.20
2023-04-08T00:14:24.700Z,92.20
2023-04-08T00:16:51.915Z,92.20
2023-04-08T00:19:19.115Z,92.20
2023-04-08T00:21:46.404Z,92.20
2023-04-08T00:24:13.725Z,92.20
2023-04-08T00:26:40.872Z,92.20
2023-04-08T00:29:08.192Z,92.20
2023-04-08T00:31:35.523Z,92.20
2023-04-08T00:34:03.005Z,92.20
2023-04-08T00:36:30.189Z,92.20
2023-04-08T00:38:57.801Z,92.20
2023-04-08T00:41:25.063Z,92.20
2023-04-08T00:43:53.222Z,92.20
2023-04-08T00:46:21.427Z,92.20
2023-04-08T00:48:49.001Z,92.20
2023-04-08T00:51:16.543Z,92.20
2023-04-08T00:53:43.771Z,92.20
2023-04-08T00:56:11.458Z,92.20
2023-04-08T00:58:39.065Z,92.20
2023-04-08T01:01:29.808Z,92.20
2023-04-08T01:04:10.089Z,92.20
2023-04-08T01:06:57.279Z,92.20
2023-04-08T01:09:30.230Z,92.20
2023-04-08T01:11:59.176Z,92.20
2023-04-08T01:14:28.471Z,92.20
2023-04-08T01:16:59.275Z,92.20
2023-04-08T01:19:39.603Z,92.20
2023-04-08T01:22:32.382Z,92.20
2023-04-08T01:25:36.881Z,92.20
2023-04-08T01:28:11.781Z,92.20
2023-04-08T01:30:41.130Z,92.20
2023-04-08T01:33:11.912Z,92.20
2023-04-08T01:35:39.431Z,92.20
2023-04-08T01:38:09.554Z,92.20
2023-04-08T01:40:39.593Z,92.20
2023-04-08T01:43:10.155Z,92.20
2023-04-08T01:45:37.321Z,92.20
2023-04-08T01:48:05.083Z,92.20
2023-04-08T01:50:32.847Z,92.20
2023-04-08T01:53:01.390Z,92.20
2023-04-08T01:55:29.367Z,92.20
2023-04-08T01:58:01.586Z,92.20
2023-04-08T02:00:32.566Z,92.20
2023-04-08T02:03:01.151Z,92.20
2023-04-08T02:05:28.705Z,92.20
2023-04-08T02:07:56.107Z,92.20
2023-04-08T02:10:23.336Z,92.20
2023-04-08T02:12:50.724Z,92.20
2023-04-08T02:15:18.075Z,92.20
2023-04-08T02:17:51.268Z,92.20
2023-04-08T02:20:23.743Z,92.20
2023-04-08T02:22:56.845Z,92.20
2023-04-08T02:25:25.980Z,92.20
2023-04-08T02:27:54.987Z,92.20
2023-04-08T02:30:24.270Z,92.20
2023-04-08T02:32:54.216Z,92.20
2023-04-08T02:35:21.779Z,92.20
2023-04-08T02:37:49.048Z,92.20
2023-04-08T02:40:27.154Z,92.20
2023-04-08T02:42:55.195Z,92.20
2023-04-08T02:45:23.572Z,92.20
2023-04-08T02:47:51.240Z,92.20
2023-04-08T02:50:18.505Z,92.20
2023-04-08T02:52:46.009Z,92.20
2023-04-08T02:55:13.580Z,92.20
2023-04-08T02:57:43.126Z,92.20
2023-04-08T03:00:11.097Z,92.20
2023-04-08T03:02:38.734Z,92.20
2023-04-08T03:05:06.703Z,92.20
2023-04-08T03:07:34.185Z,92.20
2023-04-08T03:10:01.619Z,92.20
2023-04-08T03:12:28.812Z,92.20
2023-04-08T03:14:56.024Z,92.20
2023-04-08T03:17:23.308Z,92.20
2023-04-08T03:19:50.647Z,92.20
2023-04-08T03:22:17.831Z,92.20
2023-04-08T03:24:45.198Z,92.20
2023-04-08T03:27:12.955Z,92.20
2023-04-08T03:29:40.309Z,92.20
2023-04-08T03:32:07.814Z,92.20
2023-04-08T03:34:38.043Z,92.20
2023-04-08T03:37:05.562Z,92.20
2023-04-08T03:39:33.309Z,92.20
2023-04-08T03:42:01.344Z,92.20
2023-04-08T03:44:28.582Z,92.20
2023-04-08T03:46:55.852Z,92.20
2023-04-08T03:49:23.125Z,92.20
2023-04-08T03:51:51.132Z,92.20
2023-04-08T03:54:18.401Z,92.20
2023-04-08T03:56:45.972Z,92.20
2023-04-08T03:59:13.171Z,92.20
2023-04-08T04:01:41.945Z,92.20
2023-04-08T04:04:09.587Z,92.20
2023-04-08T04:06:37.946Z,92.20
2023-04-08T04:09:05.209Z,92.20
2023-04-08T04:11:35.238Z,92.20
2023-04-08T04:14:02.613Z,92.20
2023-04-08T04:16:32.720Z,92.20
2023-04-08T04:19:00.422Z,92.20
2023-04-08T04:21:27.772Z,92.20
2023-04-08T04:23:55.411Z,92.20
2023-04-08T04:26:22.593Z,92.20
2023-04-08T04:28:50.118Z,92.20
2023-04-08T04:31:28.084Z,92.20
2023-04-08T04:33:55.325Z,92.20
2023-04-08T04:36:22.618Z,92.20
2023-04-08T04:38:51.806Z,92.20
2023-04-08T04:41:19.285Z,92.20
2023-04-08T04:43:46.590Z,92.20
2023-04-08T04:46:13.755Z,92.20
2023-04-08T04:48:40.900Z,92.20
2023-04-08T04:51:08.124Z,92.20
2023-04-08T04:53:35.272Z,92.20
2023-04-08T04:56:02.738Z,92.20
2023-04-08T04:58:31.030Z,92.20
2023-04-08T05:00:58.953Z,92.20
2023-04-08T05:03:26.293Z,92.20
2023-04-08T05:05:54.794Z,92.20
2023-04-08T05:08:22.101Z,92.20
2023-04-08T05:10:52.658Z,92.20
2023-04-08T05:13:19.914Z,92.20
2023-04-08T05:15:48.657Z,92.20
2023-04-08T05:18:15.998Z,92.20
2023-04-08T05:20:43.185Z,92.20
2023-04-08T05:23:10.460Z,92.20
2023-04-08T05:25:37.765Z,92.20
2023-04-08T05:28:05.223Z,92.20
2023-04-08T05:30:32.438Z,92.20
2023-04-08T05:33:00.725Z,92.20
2023-04-08T05:35:29.153Z,92.20
2023-04-08T05:37:56.405Z,92.20
2023-04-08T05:40:23.938Z,92.20
2023-04-08T05:42:51.191Z,92.20
2023-04-08T05:45:18.501Z,92.20
2023-04-08T05:47:46.241Z,92.20
2023-04-08T05:50:14.054Z,92.20
2023-04-08T05:52:48.427Z,92.20
2023-04-08T05:55:15.931Z,92.20
2023-04-08T05:57:43.283Z,92.20
2023-04-08T06:00:11.662Z,92.20
2023-04-08T06:02:40.180Z,92.20
2023-04-08T06:05:07.829Z,92.20
2023-04-08T06:07:36.591Z,92.20
2023-04-08T06:10:05.569Z,92.20
2023-04-08T06:12:36.625Z,92.20
2023-04-08T06:15:04.742Z,92.20
2023-04-08T06:17:32.388Z,92.20
2023-04-08T06:20:01.559Z,92.20
2023-04-08T06:22:28.789Z,92.20
2023-04-08T06:24:56.024Z,92.20
2023-04-08T06:27:23.313Z,92.20
2023-04-08T06:29:51.297Z,92.20
2023-04-08T06:32:18.530Z,92.20
2023-04-08T06:34:46.624Z,92.20
2023-04-08T06:37:14.080Z,92.20
2023-04-08T06:39:41.688Z,92.20
2023-04-08T06:42:08.944Z,92.20
2023-04-08T06:44:36.341Z,92.20
2023-04-08T06:47:04.055Z,92.20
2023-04-08T06:49:31.796Z,92.20
2023-04-08T06:51:59.177Z,92.20
2023-04-08T06:54:26.778Z,92.20
2023-04-08T06:56:55.199Z,92.20
2023-04-08T06:59:22.566Z,92.20
2023-04-08T07:01:49.839Z,92.20
2023-04-08T07:04:17.989Z,92.20
2023-04-08T07:06:46.052Z,92.20
2023-04-08T07:09:14.083Z,92.20
2023-04-08T07:11:41.511Z,92.20
2023-04-08T07:14:08.787Z,92.20
2023-04-08T07:16:36.003Z,92.20
2023-04-08T07:19:03.472Z,92.20
2023-04-08T07:21:31.734Z,92.20
2023-04-08T07:23:59.449Z,92.20
2023-04-08T07:26:28.743Z,92.20
2023-04-08T07:28:56.227Z,92.20
2023-04-08T07:31:23.580Z,92.20
2023-04-08T07:33:51.007Z,92.20
2023-04-08T07:36:18.621Z,92.20
2023-04-08T07:38:49.793Z,92.20
2023-04-08T07:41:17.195Z,92.20
2023-04-08T07:43:45.592Z,92.20
2023-04-08T07:46:12.849Z,92.20
2023-04-08T07:48:40.032Z,92.20
2023-04-08T07:51:10.902Z,92.20
2023-04-08T07:53:39.643Z,92.20
2023-04-08T07:56:15.790Z,92.20
2023-04-08T07:58:51.273Z,92.20
2023-04-08T08:01:23.292Z,92.20
2023-04-08T08:03:57.380Z,92.20
2023-04-08T08:06:38.314Z,92.20
2023-04-08T08:09:05.781Z,92.20
2023-04-08T08:11:33.295Z,92.20
2023-04-08T08:14:01.162Z,92.20
2023-04-08T08:16:37.167Z,92.20
2023-04-08T08:19:06.602Z,92.20
2023-04-08T08:21:33.893Z,92.20
2023-04-08T08:24:01.319Z,92.20
2023-04-08T08:26:28.938Z,92.20
2023-04-08T08:28:56.461Z,92.20
2023-04-08T08:31:23.720Z,92.20
2023-04-08T08:33:51.225Z,92.20
2023-04-08T08:36:19.163Z,92.20
2023-04-08T08:38:46.399Z,92.20
2023-04-08T08:41:13.547Z,92.20
2023-04-08T08:43:41.311Z,92.20
2023-04-08T08:46:12.595Z,92.20
2023-04-08T08:48:40.985Z,92.20
2023-04-08T08:51:16.005Z,92.20
2023-04-08T08:53:45.847Z,92.20
2023-04-08T08:56:18.453Z,92.20
2023-04-08T08:58:47.943Z,92.20
2023-04-08T09:01:35.893Z,92.20
2023-04-08T09:04:20.871Z,92.20
2023-04-08T09:07:08.895Z,92.20
2023-04-08T09:09:52.000Z,92.20
2023-04-08T09:12:19.617Z,92.20
2023-04-08T09:14:47.304Z,92.20
2023-04-08T09:17:14.791Z,92.20
2023-04-08T09:20:12.363Z,92.20
2023-04-08T09:23:06.860Z,92.20
2023-04-08T09:25:34.692Z,92.20
2023-04-08T09:28:03.338Z,92.20
2023-04-08T09:30:33.247Z,92.20
2023-04-08T09:33:01.704Z,92.20
2023-04-08T09:35:28.980Z,92.20
2023-04-08T09:38:01.218Z,92.20
2023-04-08T09:40:34.075Z,92.20
2023-04-08T09:43:09.661Z,92.20
2023-04-08T09:45:38.504Z,92.20
2023-04-08T09:48:15.791Z,92.20
2023-04-08T09:50:52.913Z,92.20
2023-04-08T09:53:37.150Z,92.20
2023-04-08T09:56:10.857Z,92.20
2023-04-08T09:58:54.962Z,92.20
2023-04-08T10:01:37.997Z,92.20
2023-04-08T10:04:09.999Z,92.20
2023-04-08T10:06:38.787Z,92.20
2023-04-08T10:09:07.663Z,92.20
2023-04-08T10:11:36.398Z,92.20
2023-04-08T10:14:03.892Z,92.20
2023-04-08T10:16:35.309Z,92.20
2023-04-08T10:19:02.681Z,92.20
2023-04-08T10:21:43.585Z,92.20
2023-04-08T10:24:11.985Z,92.20
2023-04-08T10:26:44.492Z,92.20
2023-04-08T10:29:29.504Z,92.20
2023-04-08T10:31:58.138Z,91.50
2023-04-08T10:34:26.981Z,91.90
2023-04-08T10:36:56.117Z,90.80
2023-04-08T10:39:23.473Z,90.70
2023-04-08T10:41:51.693Z,89.40
2023-04-08T10:44:29.487Z,90.10
2023-04-08T10:46:56.700Z,90.20
2023-04-08T10:49:32.461Z,89.30
2023-04-08T10:51:59.680Z,90.80
2023-04-08T10:54:27.500Z,89.50
2023-04-08T10:56:55.032Z,88.90
2023-04-08T10:59:30.218Z,86.50
2023-04-08T11:01:58.626Z,86.30
2023-04-08T11:04:26.559Z,84.10
2023-04-08T11:06:54.129Z,80.80
2023-04-08T11:09:21.524Z,79.10
2023-04-08T11:11:48.892Z,78.50
2023-04-08T11:14:20.022Z,77.60
2023-04-08T11:16:47.225Z,81.00
2023-04-08T11:19:14.540Z,81.60
2023-04-08T11:21:41.898Z,80.50
2023-04-08T11:24:13.626Z,83.90
2023-04-08T11:26:42.766Z,83.90
2023-04-08T11:29:14.848Z,83.00
2023-04-08T11:31:44.604Z,86.10
2023-04-08T11:34:12.362Z,82.00
2023-04-08T11:36:41.987Z,76.60
2023-04-08T11:39:12.507Z,77.10
2023-04-08T11:41:40.784Z,80.00
2023-04-08T11:44:08.564Z,76.80
2023-04-08T11:46:36.568Z,74.20
2023-04-08T11:49:08.243Z,75.10
2023-04-08T11:51:54.336Z,76.20
2023-04-08T11:54:32.727Z,76.80
2023-04-08T11:57:01.186Z,78.30
2023-04-08T11:59:29.616Z,78.60
2023-04-08T12:01:57.554Z,78.90
2023-04-08T12:04:25.057Z,80.60
2023-04-08T12:06:52.860Z,81.80
2023-04-08T12:09:20.069Z,79.10
2023-04-08T12:11:47.309Z,78.40
2023-04-08T12:14:15.351Z,81.00
2023-04-08T12:16:42.727Z,78.70
2023-04-08T12:19:10.033Z,78.70
2023-04-08T12:21:38.448Z,75.90
2023-04-08T12:24:05.834Z,76.20
2023-04-08T12:26:33.005Z,75.90
2023-04-08T12:29:00.118Z,75.30
2023-04-08T12:31:28.701Z,75.70
2023-04-08T12:33:55.956Z,75.60
2023-04-08T12:36:23.341Z,75.30
2023-04-08T12:38:50.706Z,74.40
2023-04-08T12:41:18.134Z,77.30
2023-04-08T12:43:45.721Z,77.00
2023-04-08T12:46:13.582Z,77.00
2023-04-08T12:48:41.033Z,78.80
2023-04-08T12:51:10.587Z,80.10
2023-04-08T12:53:38.048Z,79.70
2023-04-08T12:56:05.576Z,81.20
2023-04-08T12:58:32.817Z,81.90
2023-04-08T13:01:00.094Z,81.70
2023-04-08T13:03:30.618Z,82.40
2023-04-08T13:05:59.312Z,81.00
2023-04-08T13:08:27.192Z,80.70
2023-04-08T13:10:55.629Z,80.80
2023-04-08T13:13:22.935Z,79.00
2023-04-08T13:15:50.294Z,80.30
2023-04-08T13:18:17.409Z,82.20
2023-04-08T13:20:44.810Z,81.30
2023-04-08T13:23:12.200Z,80.80
2023-04-08T13:25:39.480Z,81.60
2023-04-08T13:28:06.696Z,82.70
2023-04-08T13:30:34.017Z,83.80
2023-04-08T13:33:01.597Z,83.10
2023-04-08T13:35:32.481Z,83.40
2023-04-08T13:37:59.751Z,82.70
2023-04-08T13:40:28.115Z,84.00
2023-04-08T13:42:55.321Z,83.90
2023-04-08T13:45:22.657Z,84.60
2023-04-08T13:47:49.891Z,83.60
2023-04-08T13:50:22.251Z,85.40
2023-04-08T13:52:49.410Z,86.20
2023-04-08T13:55:17.214Z,86.60
2023-04-08T13:57:44.782Z,86.90
2023-04-08T14:00:13.284Z,85.50
2023-04-08T14:02:40.682Z,86.20
2023-04-08T14:05:08.827Z,86.70
2023-04-08T14:07:36.022Z,85.20
2023-04-08T14:10:03.266Z,85.60
2023-04-08T14:12:30.656Z,85.70
2023-04-08T14:14:57.901Z,85.30
2023-04-08T14:17:25.207Z,84.40
2023-04-08T14:19:52.670Z,84.70
2023-04-08T14:22:19.847Z,85.10
2023-04-08T14:24:46.957Z,83.90
2023-04-08T14:27:14.408Z,84.40
2023-04-08T14:29:42.072Z,85.30
2023-04-08T14:32:09.329Z,85.20
2023-04-08T14:34:37.623Z,85.30
2023-04-08T14:37:05.216Z,84.90
2023-04-08T14:39:32.408Z,84.80
2023-04-08T14:41:59.556Z,85.20
2023-04-08T14:44:26.849Z,85.20
2023-04-08T14:46:54.095Z,85.20
2023-04-08T14:49:21.354Z,85.30
2023-04-08T14:51:50.766Z,84.30
2023-04-08T14:54:19.442Z,84.70
2023-04-08T14:56:46.650Z,85.70
2023-04-08T14:59:14.205Z,85.70
2023-04-08T15:01:41.771Z,85.80
2023-04-08T15:04:09.204Z,85.90
2023-04-08T15:06:39.715Z,85.80
2023-04-08T15:09:07.137Z,86.50
2023-04-08T15:11:34.467Z,87.00
2023-04-08T15:14:01.663Z,87.40
2023-04-08T15:16:28.950Z,86.80
2023-04-08T15:18:56.638Z,85.80
2023-04-08T15:21:23.905Z,86.10
2023-04-08T15:23:51.348Z,86.60
2023-04-08T15:26:18.779Z,87.30
2023-04-08T15:28:46.700Z,86.90
2023-04-08T15:31:14.366Z,87.30
2023-04-08T15:33:43.229Z,87.40
2023-04-08T15:36:11.256Z,87.70
2023-04-08T15:38:38.622Z,88.00
2023-04-08T15:41:05.983Z,88.80
2023-04-08T15:43:33.265Z,88.50
2023-04-08T15:46:00.451Z,88.80
2023-04-08T15:48:27.669Z,88.90
2023-04-08T15:50:55.323Z,88.90
2023-04-08T15:53:23.133Z,89.10
2023-04-08T15:55:50.531Z,88.20
2023-04-08T15:58:17.972Z,88.10
2023-04-08T16:00:45.592Z,88.60
2023-04-08T16:03:13.129Z,88.40
2023-04-08T16:05:41.963Z,88.30
2023-04-08T16:08:09.642Z,88.60
2023-04-08T16:10:36.950Z,88.60
2023-04-08T16:13:04.617Z,88.90
2023-04-08T16:15:31.815Z,88.80
2023-04-08T16:17:59.075Z,88.90
2023-04-08T16:20:27.450Z,89.10
2023-04-08T16:22:54.955Z,89.10
2023-04-08T16:25:22.908Z,89.60
2023-04-08T16:27:50.310Z,89.90
2023-04-08T16:30:17.584Z,90.10
2023-04-08T16:32:45.597Z,90.00
2023-04-08T16:35:13.568Z,90.20
2023-04-08T16:37:42.890Z,90.50
2023-04-08T16:40:10.606Z,90.50
2023-04-08T16:42:37.870Z,90.80
2023-04-08T16:45:05.564Z,91.00
2023-04-08T16:47:32.983Z,91.00
2023-04-08T16:50:00.281Z,91.00
2023-04-08T16:52:27.386Z,91.40
2023-04-08T16:54:54.954Z,91.90
2023-04-08T16:57:22.796Z,92.20
2023-04-08T16:59:50.004Z,92.20
2023-04-08T17:02:17.398Z,92.20
2023-04-08T17:04:49.077Z,92.20
2023-04-08T17:07:16.514Z,92.20
2023-04-08T17:09:43.833Z,92.20
2023-04-08T17:12:11.241Z,92.20
2023-04-08T17:14:38.490Z,92.20
2023-04-08T17:17:06.004Z,92.20
2023-04-08T17:19:33.308Z,92.20
2023-04-08T17:22:00.441Z,92.20
2023-04-08T17:24:27.719Z,92.20
2023-04-08T17:26:57.022Z,92.20
2023-04-08T17:29:24.563Z,92.20
2023-04-08T17:31:52.237Z,92.20
2023-04-08T17:34:19.699Z,92.20
2023-04-08T17:36:47.658Z,92.20
2023-04-08T17:39:14.947Z,92.20
2023-04-08T17:41:43.444Z,92.20
2023-04-08T17:44:12.019Z,92.20
2023-04-08T17:46:39.379Z,92.20
2023-04-08T17:49:06.597Z,92.20
2023-04-08T17:51:34.647Z,92.20
2023-04-08T17:54:01.780Z,92.20
2023-04-08T17:56:29.177Z,92.20
2023-04-08T17:58:56.534Z,92.20
2023-04-08T18:01:23.953Z,92.20
2023-04-08T18:03:52.008Z,92.20
2023-04-08T18:06:19.725Z,92.20
2023-04-08T18:08:46.974Z,92.20
2023-04-08T18:11:14.194Z,92.20
2023-04-08T18:13:46.694Z,92.20
2023-04-08T18:16:18.587Z,92.20
2023-04-08T18:18:49.559Z,92.20
2023-04-08T18:21:25.681Z,92.20
2023-04-08T18:23:53.085Z,92.20
2023-04-08T18:26:21.547Z,92.20
2023-04-08T18:28:49.116Z,92.20
2023-04-08T18:31:19.191Z,92.20
2023-04-08T18:33:46.675Z,92.20
2023-04-08T18:36:14.216Z,92.20
2023-04-08T18:38:45.715Z,92.20
2023-04-08T18:41:13.614Z,92.20
2023-04-08T18:43:40.943Z,92.20
2023-04-08T18:46:08.293Z,92.20
2023-04-08T18:48:35.945Z,92.20
2023-04-08T18:51:03.172Z,92.20
2023-04-08T18:53:30.910Z,92.20
2023-04-08T18:55:58.141Z,92.20
2023-04-08T18:58:25.546Z,92.20
2023-04-08T19:00:52.745Z,92.20
2023-04-08T19:03:20.021Z,92.20
2023-04-08T19:05:47.198Z,92.20
2023-04-08T19:08:14.495Z,92.20
2023-04-08T19:10:41.687Z,92.20
2023-04-08T19:13:09.125Z,92.20
2023-04-08T19:15:37.294Z,92.20
2023-04-08T19:18:05.868Z,92.20
2023-04-08T19:20:33.901Z,92.20
2023-04-08T19:23:01.187Z,92.20
2023-04-08T19:25:28.291Z,92.20
2023-04-08T19:27:55.456Z,92.20
2023-04-08T19:30:23.711Z,92.20
2023-04-08T19:32:51.774Z,92.20
2023-04-08T19:35:19.041Z,92.20
2023-04-08T19:37:46.689Z,92.20
2023-04-08T19:40:14.018Z,92.20
2023-04-08T19:42:41.517Z,92.20
2023-04-08T19:45:11.040Z,92.20
2023-04-08T19:47:40.203Z,92.20
2023-04-08T19:50:08.181Z,92.20
2023-04-08T19:52:35.474Z,92.20
2023-04-08T19:55:02.934Z,92.20
2023-04-08T19:57:30.639Z,92.20
2023-04-08T19:59:57.853Z,92.20
2023-04-08T20:02:25.659Z,92.20
2023-04-08T20:04:53.008Z,92.20
2023-04-08T20:07:20.260Z,92.20
2023-04-08T20:09:47.630Z,92.20
2023-04-08T20:12:14.822Z,92.20
2023-04-08T20:14:44.682Z,92.20
2023-04-08T20:17:12.688Z,92.20
2023-04-08T20:19:41.713Z,92.20
2023-04-08T20:22:08.978Z,92.20
2023-04-08T20:24:37.078Z,92.20
2023-04-08T20:27:04.378Z,92.20
2023-04-08T20:29:32.440Z,92.20
2023-04-08T20:32:00.137Z,92.20
2023-04-08T20:34:27.413Z,92.20
2023-04-08T20:36:54.571Z,92.20
2023-04-08T20:39:23.653Z,92.20
2023-04-08T20:41:51.229Z,92.20
2023-04-08T20:44:18.434Z,92.20
2023-04-08T20:46:47.903Z,92.20
2023-04-08T20:49:16.724Z,92.20
2023-04-08T20:51:44.019Z,92.20
2023-04-08T20:54:11.334Z,92.20
2023-04-08T20:56:39.678Z,92.20
2023-04-08T20:59:07.036Z,92.20
2023-04-08T21:01:34.464Z,92.20
2023-04-08T21:04:03.364Z,92.20
2023-04-08T21:06:31.972Z,92.20
2023-04-08T21:08:59.196Z,92.20
2023-04-08T21:11:28.111Z,92.20
2023-04-08T21:13:56.619Z,92.20
2023-04-08T21:16:23.950Z,92.20
2023-04-08T21:18:51.593Z,92.20
2023-04-08T21:21:18.921Z,92.20
2023-04-08T21:23:49.165Z,92.20
2023-04-08T21:26:16.746Z,92.20
2023-04-08T21:28:44.376Z,92.20
2023-04-08T21:31:12.770Z,92.20
2023-04-08T21:33:40.859Z,92.20
2023-04-08T21:36:08.044Z,92.20
2023-04-08T21:38:36.275Z,92.20
2023-04-08T21:41:03.598Z,92.20
2023-04-08T21:43:31.023Z,92.20
2023-04-08T21:45:58.239Z,92.20
2023-04-08T21:48:25.590Z,92.20
2023-04-08T21:50:53.485Z,92.20
2023-04-08T21:53:23.022Z,92.20
2023-04-08T21:55:50.274Z,92.20
2023-04-08T21:58:17.507Z,92.20
2023-04-08T22:00:45.081Z,92.20
2023-04-08T22:03:12.585Z,92.20
2023-04-08T22:05:39.846Z,92.20
2023-04-08T22:08:07.007Z,92.20
2023-04-08T22:10:34.346Z,92.20
2023-04-08T22:13:01.707Z,92.20
2023-04-08T22:15:29.054Z,92.20
2023-04-08T22:17:56.371Z,92.20
2023-04-08T22:20:23.519Z,92.20
2023-04-08T22:22:53.803Z,92.20
2023-04-08T22:25:21.058Z,92.20
2023-04-08T22:27:48.263Z,92.20
2023-04-08T22:30:15.570Z,92.20
2023-04-08T22:32:43.003Z,92.20
2023-04-08T22:35:10.882Z,92.20
2023-04-08T22:37:38.041Z,92.20
2023-04-08T22:40:05.836Z,92.20
2023-04-08T22:42:32.986Z,92.20
2023-04-08T22:45:00.371Z,92.20
2023-04-08T22:47:27.779Z,92.20
2023-04-08T22:49:54.944Z,92.20
2023-04-08T22:52:22.261Z,92.20
2023-04-08T22:54:49.358Z,92.20
2023-04-08T22:57:16.709Z,92.20
2023-04-08T22:59:43.913Z,92.20
2023-04-08T23:02:11.133Z,92.20
2023-04-08T23:04:38.477Z,92.20
2023-04-08T23:07:05.840Z,92.20
2023-04-08T23:09:33.809Z,92.20
2023-04-08T23:12:01.673Z,92.20
2023-04-08T23:14:29.322Z,92.20
2023-04-08T23:16:56.462Z,92.20
2023-04-08T23:19:23.747Z,92.20
2023-04-08T23:21:50.977Z,92.20
2023-04-08T23:24:18.115Z,92.20
2023-04-08T23:26:45.791Z,92.20
2023-04-08T23:29:13.014Z,92.20
2023-04-08T23:31:40.207Z,92.20
2023-04-08T23:34:07.556Z,92.20
2023-04-08T23:36:34.858Z,92.20
2023-04-08T23:39:01.989Z,92.20
2023-04-08T23:41:29.164Z,92.20
2023-04-08T23:43:56.341Z,92.20
2023-04-08T23:46:23.655Z,92.20
2023-04-08T23:48:51.342Z,92.20
2023-04-08T23:51:18.705Z,92.20
2023-04-08T23:53:46.410Z,92.20
2023-04-08T23:56:13.866Z,92.20
2023-04-08T23:58:40.991Z,92.20
